Time;durP1;ratioP1;P1;durP2;ratioP2;P2;SDS_P1;SDS_P2;PMS_P1;PMS_P2;Temp;Humidity;BMP_temperature;BMP_pressure;BME280_temperature;BME280_humidity;BME280_pressure;Samples;Min_cycle;Max_cycle;Signal;HPM_P1;HPM_P2
2021/01/24 12:16:30;;;;;;;;;;;;;;;-144.34;100.00;60189.88;5056158;23;20454;-91
2021/01/24 12:19:09;;;;;;;;;;;;;;;-144.34;100.00;60189.88;5007349;28;19933;-91
2021/01/24 12:21:36;;;;;;;;;;;;;;;-144.34;100.00;60189.88;5009199;28;20069;-91
2021/01/24 12:24:08;;;;;;;;;;;;;;;-144.34;100.00;60189.88;5006024;28;19925;-91
2021/01/24 12:26:41;;;;;;;;;;;;;;;-144.34;100.00;60189.88;5002914;28;20034;-91
2021/01/24 12:29:07;;;;;;;;;;;;;;;-144.34;100.00;60189.88;5005141;28;19925;-91
2021/01/24 12:31:32;;;;;;;;;;;;;;;-144.34;100.00;60189.88;5018163;28;19920;-89
2021/01/24 12:34:28;;;;;;;;;;;;;;;;;;;;;
2021/01/24 12:36:56;;;;;;;;;;;;;;;-144.34;100.00;60189.88;5030258;28;20368;-95
2021/01/24 12:39:22;;;;;;;;;;;;;;;-144.34;100.00;60189.88;5027326;28;20353;-91
2021/01/24 12:41:47;;;;;;;;;;;;;;;-144.34;100.00;60189.88;5013854;28;20159;-93
2021/01/24 12:44:12;;;;;;;;;;;;;;;-144.34;100.00;60189.88;5010409;28;20213;-92
2021/01/24 12:46:40;;;;;;;;;;;;;;;-144.34;100.00;60189.88;5013362;28;20017;-92
2021/01/24 12:49:05;;;;;;;;;;;;;;;-144.34;100.00;60189.88;5009534;28;19924;-92
2021/01/24 12:51:31;;;;;;;;;;;;;;;-144.34;100.00;60189.88;5011683;28;19931;-93
2021/01/24 12:53:56;;;;;;;;;;;;;;;-144.34;100.00;60189.88;5010343;28;20031;-93
2021/01/24 12:56:22;;;;;;;;;;;;;;;-144.34;100.00;60189.88;5009374;28;20376;-93
2021/01/24 12:58:47;;;;;;;;;;;;;;;-144.34;100.00;60189.88;5012931;28;19923;-91
2021/01/24 13:01:12;;;;;;;;;;;;;;;-144.34;100.00;60189.88;5010109;28;20023;-91
2021/01/24 13:03:39;;;;;;;;;;;;;;;-144.34;100.00;60189.88;5009982;28;19932;-93
2021/01/24 13:06:05;;;;;;;;;;;;;;;-144.34;100.00;60189.88;5012384;28;19928;-92
2021/01/24 13:08:30;;;;;;;;;;;;;;;-144.34;100.00;60189.88;5010096;28;20143;-94
2021/01/24 13:10:56;;;;;;;;;;;;;;;-144.34;100.00;60189.88;5017539;28;19989;-92
2021/01/24 13:13:21;;;;;;;;;;;;;;;-144.34;100.00;60189.88;5013611;28;19924;-92
2021/01/24 13:15:47;;;;;;;;;;;;;;;-144.34;100.00;60189.88;5009644;28;19925;-91
2021/01/24 13:18:23;;;;;;;;;;;;;;;-144.34;100.00;60189.88;5005249;23;20429;-95
2021/01/24 13:20:48;;;;;;;;;;;;;;;-144.34;100.00;60189.88;4971276;28;20354;-91
2021/01/24 13:23:13;;;;;;;;;;;;;;;-144.34;100.00;60189.88;4982119;28;19991;-92
2021/01/24 13:25:39;;;;;;;;;;;;;;;-144.34;100.00;60189.88;4979021;28;19975;-92
2021/01/24 13:28:04;;;;;;;;;;;;;;;-144.34;100.00;60189.88;4999662;28;19917;-92
2021/01/24 13:30:29;;;;;;;;;;;;;;;-144.34;100.00;60189.88;5000028;28;19925;-93
2021/01/24 13:32:56;;;;;;;;;;;;;;;-144.34;100.00;60189.88;4998037;28;19984;-93
2021/01/24 13:35:23;;;;;;;;;;;;;;;-144.34;100.00;60189.88;4982280;28;20325;-91
2021/01/24 13:37:49;;;;;;;;;;;;;;;-144.34;100.00;60189.88;4981521;28;20246;-91
2021/01/24 13:40:14;;;;;;;;;;;;;;;-144.34;100.00;60189.88;4977084;28;20007;-93
2021/01/24 13:42:40;;;;;;;;;;;;;;;-144.34;100.00;60189.88;4977740;28;19972;-92
2021/01/24 13:45:10;;;;;;;;;;;;;;;-144.34;100.00;60189.88;4955463;28;19926;-91
2021/01/24 13:47:58;;;;;;;;;;;;;;;-144.34;100.00;60189.88;4971140;28;19921;-91
2021/01/24 13:50:26;;;;;;;;;;;;;;;-144.34;100.00;60189.88;4987358;28;19925;-91
2021/01/24 13:53:10;;;;;;;;;;;;;;;-144.34;100.00;60189.88;4972945;28;20177;-92
2021/01/24 13:58:53;;;;;;;;;;;;;;;-144.34;100.00;60189.88;4962885;28;20056;-92
2021/01/24 14:07:28;;;;;;;;;;;;;;;-144.34;100.00;60189.88;4990558;28;20230;-92
2021/01/24 14:09:53;;;;;;;;;;;;;;;-144.34;100.00;60189.88;4973463;28;19965;-91
2021/01/24 14:12:19;;;;;;;;;;;;;;;-144.34;100.00;60189.88;4975711;28;20345;-89
2021/01/24 14:14:44;;;;;;;;;;;;;;;-144.34;100.00;60189.88;4957923;28;19928;-90
2021/01/24 14:17:09;;;;;;;;;;;;;;;-144.34;100.00;60189.88;4977876;28;20782;-90
2021/01/24 14:19:35;;;;;;;;;;;;;;;-144.34;100.00;60189.88;4979357;28;20123;-92
2021/01/24 14:22:00;;;;;;;;;;;;;;;-144.34;100.00;60189.88;4967668;28;20004;-91
2021/01/24 14:24:26;;;;;;;;;;;;;;;-144.34;100.00;60189.88;4964849;28;20362;-91
2021/01/24 14:26:51;;;;;;;;;;;;;;;-144.34;100.00;60189.88;4979074;28;19921;-92
2021/01/24 14:29:16;;;;;;;;;;;;;;;-144.34;100.00;60189.88;4976241;28;20047;-92
2021/01/24 14:31:45;;;;;;;;;;;;;;;-144.34;100.00;60189.88;4981792;28;19925;-92
2021/01/24 14:34:11;;;;;;;;;;;;;;;-144.34;100.00;60189.88;4980081;28;20100;-92
2021/01/24 14:36:37;;;;;;;;;;;;;;;-144.34;100.00;60189.88;4984007;28;19929;-92
2021/01/24 14:39:02;;;;;;;;;;;;;;;-144.34;100.00;60189.88;4983487;28;19922;-90
2021/01/24 14:41:27;;;;;;;;;;;;;;;-144.34;100.00;60189.88;4985601;28;20139;-93
2021/01/24 14:43:53;;;;;;;;;;;;;;;-144.34;100.00;60189.88;4984961;28;19921;-93
2021/01/24 14:46:18;;;;;;;;;;;;;;;-144.34;100.00;60189.88;4985738;28;19928;-92
2021/01/24 14:48:43;;;;;;;;;;;;;;;-144.34;100.00;60189.88;4985076;28;20110;-92
2021/01/24 14:51:09;;;;;;;;;;;;;;;-144.34;100.00;60189.88;4987184;28;20072;-94
2021/01/24 14:53:34;;;;;;;;;;;;;;;-144.34;100.00;60189.88;4986411;28;19922;-92
2021/01/24 14:56:00;;;;;;;;;;;;;;;-144.34;100.00;60189.88;4986413;28;19956;-92
2021/01/24 14:58:25;;;;;;;;;;;;;;;-144.34;100.00;60189.88;5002990;28;19948;-93
2021/01/24 15:00:51;;;;;;;;;;;;;;;-144.34;100.00;60189.88;4986713;28;19932;-93
2021/01/24 15:03:16;;;;;;;;;;;;;;;-144.34;100.00;60189.88;4986250;28;20097;-93
2021/01/24 15:05:41;;;;;;;;;;;;;;;-144.34;100.00;60189.88;4987130;28;20289;-92
2021/01/24 15:08:09;;;;;;;;;;;;;;;-144.34;100.00;60189.88;5002877;28;20212;-92
2021/01/24 15:10:34;;;;;;;;;;;;;;;-144.34;100.00;60189.88;4986437;28;19917;-93
2021/01/24 15:13:00;;;;;;;;;;;;;;;-144.34;100.00;60189.88;4998302;28;20289;-93
2021/01/24 15:15:25;;;;;;;;;;;;;;;-144.34;100.00;60189.88;4998640;28;19936;-92
2021/01/24 15:17:51;;;;;;;;;;;;;;;-144.34;100.00;60189.88;4982783;28;20497;-89
2021/01/24 15:20:16;;;;;;;;;;;;;;;-144.34;100.00;60189.88;4984522;28;20388;-92
2021/01/24 15:22:42;;;;;;;;;;;;;;;-144.34;100.00;60189.88;4982538;28;19953;-93
2021/01/24 15:25:07;;;;;;;;;;;;;;;-144.34;100.00;60189.88;4998556;28;19926;-93
2021/01/24 15:27:33;;;;;;;;;;;;;;;-144.34;100.00;60189.88;5004203;28;19917;-93
2021/01/24 15:30:02;;;;;;;;;;;;;;;-144.34;100.00;60189.88;5003722;28;19918;-94
2021/01/24 15:32:27;;;;;;;;;;;;;;;-144.34;100.00;60189.88;4971745;28;19925;-94
2021/01/24 15:34:53;;;;;;;;;;;;;;;-144.34;100.00;60189.88;4986978;28;19932;-94
2021/01/24 15:37:18;;;;;;;;;;;;;;;-144.34;100.00;60189.88;4987087;28;19921;-94
2021/01/24 15:39:43;;;;;;;;;;;;;;;-144.34;100.00;60189.88;4987828;28;19924;-94
2021/01/24 15:42:09;;;;;;;;;;;;;;;-144.34;100.00;60189.88;4994552;28;19925;-95
2021/01/24 15:44:34;;;;;;;;;;;;;;;-144.34;100.00;60189.88;4987284;28;20021;-95
2021/01/24 15:47:00;;;;;;;;;;;;;;;-144.34;100.00;60189.88;4987851;28;19922;-95
2021/01/24 15:49:25;;;;;;;;;;;;;;;-144.34;100.00;60189.88;4988608;28;19921;-95
2021/01/24 15:51:51;;;;;;;;;;;;;;;-144.34;100.00;60189.88;4988843;28;19914;-96
2021/01/24 15:54:19;;;;;;;;;;;;;;;-144.34;100.00;60189.88;4991258;28;19921;-95
2021/01/24 15:56:46;;;;;;;;;;;;;;;-144.34;100.00;60189.88;4991016;28;19922;-95
2021/01/24 15:59:11;;;;;;;;;;;;;;;-144.34;100.00;60189.88;5007174;28;19948;-94
2021/01/24 16:01:37;;;;;;;;;;;;;;;-144.34;100.00;60189.88;4986815;28;19921;-95
2021/01/24 16:04:02;;;;;;;;;;;;;;;-144.34;100.00;60189.88;4992948;28;19939;-96
2021/01/24 16:06:29;;;;;;;;;;;;;;;-144.34;100.00;60189.88;5072332;23;20012;-95
2021/01/24 16:08:54;;;;;;;;;;;;;;;-144.34;100.00;60189.88;4984988;28;20347;-95
2021/01/24 16:11:20;;;;;;;;;;;;;;;-144.34;100.00;60189.88;4986561;28;19917;-95
2021/01/24 16:13:45;;;;;;;;;;;;;;;-144.34;100.00;60189.88;4986235;28;19976;-95
2021/01/24 16:16:37;;;;;;;;;;;;;;;-144.34;100.00;60189.88;4991165;28;19921;-95
2021/01/24 16:19:04;;;;;;;;;;;;;;;-144.34;100.00;60189.88;4974498;28;19926;-90
2021/01/24 16:21:29;;;;;;;;;;;;;;;-144.34;100.00;60189.88;4975958;28;20003;-96
2021/01/24 16:23:56;;;;;;;;;;;;;;;-144.34;100.00;60189.88;4977412;28;19929;-96
2021/01/24 16:26:24;;;;;;;;;;;;;;;-144.34;100.00;60189.88;4990758;28;20349;-95
2021/01/24 16:28:52;;;;;;;;;;;;;;;-144.34;100.00;60189.88;4962611;28;19921;-95
2021/01/24 16:31:18;;;;;;;;;;;;;;;-144.34;100.00;60189.88;4970011;28;19921;-95
2021/01/24 16:33:48;;;;;;;;;;;;;;;-144.34;100.00;60189.88;4988493;28;20088;-95
2021/01/24 16:36:20;;;;;;;;;;;;;;;-144.34;100.00;60189.88;4988462;28;19925;-96
2021/01/24 16:38:45;;;;;;;;;;;;;;;-144.34;100.00;60189.88;4992244;28;19935;-96
2021/01/24 16:41:11;;;;;;;;;;;;;;;-144.34;100.00;60189.88;4984365;28;19929;-96
2021/01/24 16:43:36;;;;;;;;;;;;;;;-144.34;100.00;60189.88;4977211;28;19933;-96
2021/01/24 16:46:03;;;;;;;;;;;;;;;-144.34;100.00;60189.88;4968814;28;20262;-95
2021/01/24 16:48:28;;;;;;;;;;;;;;;-144.34;100.00;60189.88;4977718;28;20427;-96
2021/01/24 16:50:54;;;;;;;;;;;;;;;-144.34;100.00;60189.88;4987459;28;19936;-95
2021/01/24 17:17:12;;;;;;;;;;;;;;;-144.34;100.00;60189.88;4929396;29;19986;-95
